^^
Saratoga-Weather Station Historical Data
Daily Summary for February 25, 2020 Units:  Metric    English   Both
Daily Weekly Monthly Yearly Custom
  High: Low: Average:
Temperature: 9.6 °C 3.5 °C 7.4 °C
Dew Point: 7.5 °C 2.2 °C 5.4 °C
Humidity: 95% 67% 88%
Wind Speed: 32.2km/h km/h 7.2km/h
Wind Gust: 32.2km/h - -
Wind- - West
Pressure: 1009.5 hPa 997.3 hPa -
Precipitation: 14.2 mm    
Historical Graphs
 
 
Tabular Data for February 25, 2020
Time Temperature Dew Point Pressure Wind Wind Speed Wind Gust Humidity Rainfall Rate (Hourly) solar
00:00 9.4 °C 7.5 °C 1009.5 hPa NW 7.9 km/h 14.5 km/h 88% 0.0 mm 0 W/m2
00:05 9.4 °C 7.3 °C 1009.5 hPa WNW 4.7 km/h 6.4 km/h 87% 0.0 mm 0 W/m2
00:10 9.4 °C 7.3 °C 1009.1 hPa WNW 1.4 km/h 8 km/h 87% 0.0 mm 0 W/m2
00:15 9.5 °C 7.4 °C 1009.1 hPa NNW 3.2 km/h 8 km/h 87% 0.0 mm 0 W/m2
00:20 9.5 °C 7.3 °C 1009.1 hPa NNW 6.4 km/h 19.3 km/h 86% 0.0 mm 0 W/m2
00:25 9.6 °C 7.4 °C 1009.1 hPa North 1.4 km/h 14.5 km/h 86% 0.0 mm 0 W/m2
00:30 9.6 °C 7.4 °C 1009.1 hPa Calm   19.3 km/h 86% 0.0 mm 0 W/m2
00:35 9.5 °C 7.3 °C 1009.1 hPa WNW 7.9 km/h 16.1 km/h 86% 0.0 mm 0 W/m2
00:40 9.4 °C 7.2 °C 1009.1 hPa WSW 3.2 km/h 12.9 km/h 86% 0.0 mm 0 W/m2
00:45 9.4 °C 7.2 °C 1009.1 hPa NNW 6.4 km/h 16.1 km/h 86% 0.0 mm 0 W/m2
00:50 9.3 °C 7.2 °C 1008.8 hPa WNW 6.4 km/h 14.5 km/h 87% 0.0 mm 0 W/m2
00:55 9.3 °C 7.4 °C 1008.8 hPa NNW 13 km/h 16.1 km/h 88% 0.0 mm 0 W/m2
01:00 9.1 °C 7.2 °C 1008.8 hPa WNW 7.9 km/h 12.9 km/h 88% 0.0 mm 0 W/m2
01:05 8.9 °C 7.2 °C 1009.1 hPa West 6.4 km/h 12.9 km/h 89% 0.0 mm 0 W/m2
01:10 8.8 °C 7.2 °C 1008.8 hPa NNW 4.7 km/h 11.3 km/h 90% 0.0 mm 0 W/m2
01:15 8.7 °C 7.2 °C 1008.8 hPa SSW 1.4 km/h 6.4 km/h 90% 0.0 mm 0 W/m2
01:20 8.7 °C 7.3 °C 1008.8 hPa West 4.7 km/h 11.3 km/h 91% 0.2 mm 0 W/m2
01:25 8.6 °C 7.2 °C 1008.8 hPa West 1.4 km/h 9.7 km/h 91% 0.2 mm 0 W/m2
01:30 8.5 °C 7.1 °C 1008.8 hPa NW 4.7 km/h 9.7 km/h 91% 0.2 mm 0 W/m2
01:35 8.4 °C 7.2 °C 1008.8 hPa NW 3.2 km/h 19.3 km/h 92% 0.2 mm 0 W/m2
01:40 8.4 °C 7.2 °C 1008.5 hPa WNW 13 km/h 19.3 km/h 92% 0.5 mm 0 W/m2
01:45 8.4 °C 7.2 °C 1008.5 hPa NW 3.2 km/h 9.7 km/h 92% 0.5 mm 0 W/m2
01:50 8.3 °C 7.1 °C 1008.5 hPa NW 9.7 km/h 16.1 km/h 92% 0.5 mm 0 W/m2
01:55 8.3 °C 7.1 °C 1008.5 hPa West 4.7 km/h 8 km/h 92% 0.5 mm 0 W/m2
02:00 8.3 °C 7.2 °C 1008.5 hPa NNW 6.4 km/h 8 km/h 93% 0.5 mm 0 W/m2
02:05 8.2 °C 7.1 °C 1008.1 hPa WNW 4.7 km/h 9.7 km/h 93% 0.5 mm 0 W/m2
02:10 8.2 °C 7.1 °C 1008.1 hPa WNW 4.7 km/h   93% 0.5 mm 0 W/m2
02:15 8.2 °C 7.1 °C 1008.1 hPa NNE 4.7 km/h 4.8 km/h 93% 0.5 mm 0 W/m2
02:20 8.2 °C 7.1 °C 1008.1 hPa NNE 4.7 km/h 4.8 km/h 93% 0.5 mm 0 W/m2
02:25 8.2 °C 7.1 °C 1008.1 hPa NNE 4.7 km/h   93% 0.5 mm 0 W/m2
02:30 8.2 °C 7.1 °C 1007.8 hPa Calm     93% 0.8 mm 0 W/m2
02:35 8.2 °C 7.1 °C 1007.8 hPa Calm     93% 0.8 mm 0 W/m2
02:40 8.1 °C 7 °C 1007.8 hPa Calm     93% 0.5 mm 0 W/m2
02:45 8.1 °C 7 °C 1007.8 hPa Calm     93% 0.8 mm 0 W/m2
02:50 8.1 °C 7 °C 1007.8 hPa NW 3.2 km/h 17.7 km/h 93% 0.5 mm 0 W/m2
02:55 8.1 °C 7 °C 1007.5 hPa West 9.7 km/h 19.3 km/h 93% 0.8 mm 0 W/m2
03:00 8.1 °C 7 °C 1007.5 hPa North 4.7 km/h 8 km/h 93% 0.8 mm 0 W/m2
03:06 8.1 °C 7 °C 1007.5 hPa WSW 11.1 km/h 19.3 km/h 93% 0.8 mm 0 W/m2
03:11 8 °C 6.9 °C 1007.5 hPa WNW 6.4 km/h 11.3 km/h 93% 1.0 mm 0 W/m2
03:16 8 °C 6.9 °C 1007.5 hPa NNE 11.1 km/h 14.5 km/h 93% 1.3 mm 0 W/m2
03:21 7.9 °C 6.8 °C 1007.1 hPa West 3.2 km/h 22.5 km/h 93% 1.0 mm 0 W/m2
03:26 7.9 °C 6.8 °C 1007.1 hPa WNW 1.4 km/h 11.3 km/h 93% 1.3 mm 0 W/m2
03:31 7.9 °C 6.8 °C 1007.1 hPa WNW 16.3 km/h 22.5 km/h 93% 1.0 mm 0 W/m2
03:36 7.9 °C 6.8 °C 1007.1 hPa NW 3.2 km/h 11.3 km/h 93% 1.0 mm 0 W/m2
03:41 7.9 °C 6.8 °C 1007.1 hPa West 11.1 km/h 17.7 km/h 93% 1.3 mm 0 W/m2
03:46 7.8 °C 6.7 °C 1006.8 hPa WNW 9.7 km/h 12.9 km/h 93% 1.0 mm 0 W/m2
03:51 7.8 °C 6.7 °C 1006.8 hPa West 11.1 km/h 11.3 km/h 93% 1.3 mm 0 W/m2
03:56 7.8 °C 6.7 °C 1006.8 hPa WNW 14.3 km/h 16.1 km/h 93% 1.0 mm 0 W/m2
04:01 7.8 °C 6.7 °C 1006.8 hPa NW 4.7 km/h 19.3 km/h 93% 1.3 mm 0 W/m2
04:06 7.7 °C 6.6 °C 1006.8 hPa WNW 1.4 km/h 6.4 km/h 93% 1.3 mm 0 W/m2
04:11 7.7 °C 6.6 °C 1006.8 hPa WNW 6.4 km/h 17.7 km/h 93% 1.3 mm 0 W/m2
04:16 7.7 °C 6.6 °C 1006.4 hPa West 1.4 km/h 8 km/h 93% 1.0 mm 0 W/m2
04:21 7.7 °C 6.6 °C 1006.4 hPa WNW 4.7 km/h 16.1 km/h 93% 1.3 mm 0 W/m2
04:26 7.7 °C 6.6 °C 1006.4 hPa NNW 13 km/h 30.6 km/h 93% 1.0 mm 0 W/m2
04:31 7.7 °C 6.6 °C 1006.4 hPa NW 4.7 km/h 11.3 km/h 93% 1.3 mm 0 W/m2
04:36 7.7 °C 6.6 °C 1006.4 hPa NW 7.9 km/h 17.7 km/h 93% 1.3 mm 0 W/m2
04:41 7.6 °C 6.5 °C 1006.4 hPa North 13 km/h 19.3 km/h 93% 1.0 mm 0 W/m2
04:46 7.6 °C 6.7 °C 1006.1 hPa West 4.7 km/h 12.9 km/h 94% 1.3 mm 0 W/m2
04:51 7.6 °C 6.7 °C 1006.1 hPa SSE 7.9 km/h 19.3 km/h 94% 1.0 mm 0 W/m2
04:57 7.6 °C 6.7 °C 1006.1 hPa NW 4.7 km/h 14.5 km/h 94% 1.3 mm 0 W/m2
05:02 7.6 °C 6.7 °C 1006.1 hPa NW 14.3 km/h 14.5 km/h 94% 1.3 mm 0 W/m2
05:07 7.6 °C 6.7 °C 1006.1 hPa WSW 6.4 km/h 9.7 km/h 94% 1.0 mm 0 W/m2
05:12 7.6 °C 6.7 °C 1005.8 hPa NW 4.7 km/h 9.7 km/h 94% 1.3 mm 0 W/m2
05:17 7.6 °C 6.7 °C 1005.8 hPa WNW 13 km/h 16.1 km/h 94% 1.3 mm 0 W/m2
05:22 7.6 °C 6.7 °C 1005.8 hPa WNW 6.4 km/h 17.7 km/h 94% 1.0 mm 0 W/m2
05:27 7.6 °C 6.7 °C 1005.8 hPa SSW 6.4 km/h 9.7 km/h 94% 1.3 mm 0 W/m2
05:32 7.6 °C 6.5 °C 1005.8 hPa NNW 1.4 km/h 19.3 km/h 93% 1.0 mm 0 W/m2
05:37 7.6 °C 6.7 °C 1005.8 hPa WNW 11.1 km/h 12.9 km/h 94% 1.0 mm 0 W/m2
05:42 7.6 °C 6.7 °C 1005.8 hPa SE 1.4 km/h 11.3 km/h 94% 1.3 mm 0 W/m2
05:47 7.6 °C 6.7 °C 1005.4 hPa WNW 3.2 km/h 4.8 km/h 94% 1.3 mm 0 W/m2
05:52 7.6 °C 6.7 °C 1005.8 hPa SSW 4.7 km/h 4.8 km/h 94% 1.0 mm 0 W/m2
05:57 7.6 °C 6.7 °C 1005.4 hPa SW 4.7 km/h 6.4 km/h 94% 1.0 mm 0 W/m2
06:02 7.6 °C 6.7 °C 1005.4 hPa SSW 3.2 km/h 9.7 km/h 94% 1.0 mm 0 W/m2
06:07 7.6 °C 6.7 °C 1005.4 hPa WSW 4.7 km/h 14.5 km/h 94% 1.0 mm 0 W/m2
06:12 7.6 °C 6.7 °C 1005.1 hPa Calm   3.2 km/h 94% 1.0 mm 0 W/m2
06:17 7.6 °C 6.7 °C 1005.4 hPa WSW 4.7 km/h 11.3 km/h 94% 1.0 mm 0 W/m2
06:22 7.6 °C 6.7 °C 1005.1 hPa WNW 6.4 km/h 12.9 km/h 94% 1.3 mm 0 W/m2
06:27 7.6 °C 6.7 °C 1005.1 hPa West 3.2 km/h 16.1 km/h 94% 1.0 mm 0 W/m2
06:32 7.6 °C 6.7 °C 1005.1 hPa North 6.4 km/h 9.7 km/h 94% 1.3 mm 0 W/m2
06:37 7.6 °C 6.7 °C 1005.1 hPa NW 7.9 km/h 16.1 km/h 94% 1.0 mm 0 W/m2
06:42 7.6 °C 6.7 °C 1005.1 hPa WSW 7.9 km/h 24.1 km/h 94% 1.3 mm 0 W/m2
06:47 7.6 °C 6.7 °C 1004.7 hPa North 3.2 km/h 12.9 km/h 94% 1.3 mm 0 W/m2
06:52 7.6 °C 6.7 °C 1004.7 hPa North 1.4 km/h 11.3 km/h 94% 1.3 mm 0 W/m2
06:57 7.6 °C 6.7 °C 1004.7 hPa East 3.2 km/h 6.4 km/h 94% 1.5 mm 0 W/m2
07:02 7.6 °C 6.7 °C 1004.7 hPa NW 7.9 km/h 14.5 km/h 94% 1.5 mm 0 W/m2
07:07 7.6 °C 6.7 °C 1004.7 hPa North 4.7 km/h 9.7 km/h 94% 1.3 mm 0 W/m2
07:12 7.6 °C 6.7 °C 1004.7 hPa NW 16.3 km/h 16.1 km/h 94% 1.5 mm 0 W/m2
07:17 7.6 °C 6.7 °C 1004.4 hPa WNW 4.7 km/h 11.3 km/h 94% 1.5 mm 0 W/m2
07:22 7.6 °C 6.7 °C 1004.4 hPa West 11.1 km/h 16.1 km/h 94% 1.5 mm 0 W/m2
07:28 7.6 °C 6.7 °C 1004.4 hPa West 9.7 km/h 14.5 km/h 94% 1.5 mm 0 W/m2
07:33 7.7 °C 6.8 °C 1004.7 hPa ESE 4.7 km/h 9.7 km/h 94% 1.3 mm 0 W/m2
07:38 7.7 °C 6.8 °C 1004.7 hPa NW 3.2 km/h 16.1 km/h 94% 1.3 mm 0 W/m2
07:43 7.7 °C 6.8 °C 1004.7 hPa WSW 9.7 km/h 32.2 km/h 94% 1.3 mm 0 W/m2
07:48 7.7 °C 6.8 °C 1004.4 hPa West 11.1 km/h 14.5 km/h 94% 1.0 mm 5 W/m2
07:53 7.7 °C 6.8 °C 1004.7 hPa SW 16.3 km/h 17.7 km/h 94% 1.3 mm 7 W/m2
07:58 7.7 °C 6.8 °C 1004.7 hPa WNW 11.1 km/h 11.3 km/h 94% 1.0 mm 7 W/m2
08:03 7.7 °C 6.8 °C 1004.7 hPa West 4.7 km/h 14.5 km/h 94% 0.8 mm 7 W/m2
08:08 7.7 °C 6.8 °C 1004.7 hPa WNW 7.9 km/h 8 km/h 94% 0.8 mm 7 W/m2
08:13 7.7 °C 6.8 °C 1004.7 hPa SW 4.7 km/h 14.5 km/h 94% 0.5 mm 7 W/m2
08:18 7.7 °C 6.8 °C 1004.7 hPa NW 6.4 km/h 14.5 km/h 94% 0.5 mm 7 W/m2
08:23 7.7 °C 6.8 °C 1004.7 hPa NW 3.2 km/h 12.9 km/h 94% 0.5 mm 7 W/m2
08:28 7.7 °C 6.8 °C 1004.7 hPa WSW 6.4 km/h 6.4 km/h 94% 0.5 mm 7 W/m2
08:33 7.7 °C 6.8 °C 1004.7 hPa WNW 6.4 km/h 11.3 km/h 94% 0.5 mm 7 W/m2
08:38 7.7 °C 6.8 °C 1004.7 hPa WNW 4.7 km/h 8 km/h 94% 0.5 mm 7 W/m2
08:43 7.7 °C 6.8 °C 1004.7 hPa WSW 3.2 km/h 6.4 km/h 94% 0.5 mm 7 W/m2
08:48 7.7 °C 6.8 °C 1004.7 hPa WNW 6.4 km/h 19.3 km/h 94% 0.5 mm 11 W/m2
08:53 7.7 °C 6.9 °C 1004.7 hPa WNW 1.4 km/h 11.3 km/h 95% 0.5 mm 12 W/m2
08:58 7.7 °C 6.9 °C 1004.7 hPa West 4.7 km/h 19.3 km/h 95% 0.5 mm 25 W/m2
09:03 7.8 °C 7 °C 1004.7 hPa SSW 1.4 km/h 8 km/h 95% 0.5 mm 21 W/m2
09:08 7.8 °C 7 °C 1004.7 hPa NW 6.4 km/h 12.9 km/h 95% 0.5 mm 46 W/m2
09:13 7.8 °C 7 °C 1004.7 hPa WNW 4.7 km/h 6.4 km/h 95% 0.8 mm 62 W/m2
09:18 7.8 °C 7 °C 1004.7 hPa West 9.7 km/h 16.1 km/h 95% 1.0 mm 63 W/m2
09:23 7.7 °C 6.8 °C 1004.7 hPa NW 22.7 km/h 29 km/h 94% 0.8 mm 72 W/m2
09:28 7.6 °C 6.7 °C 1005.1 hPa WNW 6.4 km/h 20.9 km/h 94% 0.8 mm 116 W/m2
09:33 7.6 °C 6.5 °C 1005.1 hPa West 13 km/h 27.4 km/h 93% 0.8 mm 156 W/m2
09:38 7.6 °C 6.5 °C 1004.7 hPa WSW 6.4 km/h 16.1 km/h 93% 0.8 mm 137 W/m2
09:43 7.6 °C 6.4 °C 1004.7 hPa NW 17.7 km/h 20.9 km/h 92% 0.8 mm 109 W/m2
09:48 7.6 °C 6.4 °C 1004.7 hPa WNW 6.4 km/h 11.3 km/h 92% 0.8 mm 144 W/m2
09:53 7.6 °C 6.2 °C 1004.7 hPa WSW 6.4 km/h 12.9 km/h 91% 0.5 mm 146 W/m2
09:58 7.6 °C 6.2 °C 1004.7 hPa WNW 7.9 km/h 12.9 km/h 91% 0.5 mm 186 W/m2
10:03 7.7 °C 6.3 °C 1004.7 hPa WNW 3.2 km/h 16.1 km/h 91% 0.5 mm 185 W/m2
10:09 7.7 °C 6.3 °C 1004.7 hPa NW 4.7 km/h 16.1 km/h 91% 0.2 mm 121 W/m2
10:14 7.7 °C 6.3 °C 1004.7 hPa WNW 11.1 km/h 12.9 km/h 91% 0.0 mm 163 W/m2
10:19 7.7 °C 6.3 °C 1004.7 hPa WSW 4.7 km/h 11.3 km/h 91% 0.0 mm 146 W/m2
10:24 7.7 °C 6.3 °C 1004.4 hPa WNW 9.7 km/h 14.5 km/h 91% 0.0 mm 118 W/m2
10:29 7.6 °C 6.1 °C 1004.7 hPa West 11.1 km/h 14.5 km/h 90% 0.0 mm 128 W/m2
10:34 7.6 °C 6.1 °C 1004.7 hPa WNW 4.7 km/h 14.5 km/h 90% 0.0 mm 123 W/m2
10:39 7.6 °C 5.9 °C 1004.7 hPa West 13 km/h 19.3 km/h 89% 0.0 mm 172 W/m2
10:44 7.6 °C 5.9 °C 1004.7 hPa WNW 7.9 km/h 16.1 km/h 89% 0.0 mm 153 W/m2
10:49 7.6 °C 5.9 °C 1004.7 hPa West 6.4 km/h 11.3 km/h 89% 0.0 mm 192 W/m2
10:54 7.6 °C 5.9 °C 1004.4 hPa WSW 9.7 km/h 12.9 km/h 89% 0.0 mm 185 W/m2
10:59 7.5 °C 5.8 °C 1004.4 hPa NNW 4.7 km/h 22.5 km/h 89% 0.0 mm 155 W/m2
11:04 7.4 °C 5.7 °C 1004.4 hPa WNW 3.2 km/h 9.7 km/h 89% 0.0 mm 148 W/m2
11:09 7.4 °C 5.9 °C 1004.4 hPa SW 6.4 km/h 16.1 km/h 90% 0.0 mm 207 W/m2
11:14 7.5 °C 5.8 °C 1004.4 hPa NW 13 km/h 14.5 km/h 89% 0.0 mm 199 W/m2
11:19 7.6 °C 5.9 °C 1004.4 hPa South 1.4 km/h 8 km/h 89% 0.0 mm 223 W/m2
11:24 7.7 °C 6 °C 1004.4 hPa West 9.7 km/h 14.5 km/h 89% 0.0 mm 181 W/m2
11:29 7.8 °C 5.9 °C 1004.4 hPa WNW 11.1 km/h 11.3 km/h 88% 0.0 mm 207 W/m2
11:34 7.8 °C 5.8 °C 1004.4 hPa NW 14.3 km/h 19.3 km/h 87% 0.0 mm 123 W/m2
11:39 7.8 °C 5.6 °C 1004.1 hPa WSW 9.7 km/h 12.9 km/h 86% 0.0 mm 200 W/m2
11:44 7.8 °C 5.6 °C 1004.1 hPa West 6.4 km/h 19.3 km/h 86% 0.0 mm 216 W/m2
11:49 7.8 °C 5.8 °C 1004.1 hPa West 6.4 km/h 12.9 km/h 87% 0.0 mm 204 W/m2
11:54 7.9 °C 5.9 °C 1004.1 hPa West 1.4 km/h 16.1 km/h 87% 0.0 mm 200 W/m2
11:59 8.1 °C 5.9 °C 1004.1 hPa WSW 7.9 km/h 11.3 km/h 86% 0.0 mm 153 W/m2
12:04 8.2 °C 6 °C 1004.1 hPa West 11.1 km/h 14.5 km/h 86% 0.0 mm 339 W/m2
12:09 8.3 °C 5.9 °C 1004.1 hPa SW 4.7 km/h 16.1 km/h 85% 0.0 mm 227 W/m2
12:14 8.4 °C 6 °C 1004.1 hPa WNW 13 km/h 16.1 km/h 85% 0.0 mm 98 W/m2
12:19 8.3 °C 5.6 °C 1004.1 hPa WNW 3.2 km/h 17.7 km/h 83% 0.0 mm 118 W/m2
12:24 8.3 °C 5.8 °C 1004.1 hPa WNW 6.4 km/h 9.7 km/h 84% 0.0 mm 287 W/m2
12:29 8.4 °C 5.9 °C 1004.1 hPa WSW 14.3 km/h 14.5 km/h 84% 0.0 mm 225 W/m2
12:34 8.4 °C 5.7 °C 1004.1 hPa WNW 13 km/h 19.3 km/h 83% 0.0 mm 176 W/m2
12:39 8.5 °C 6 °C 1003.7 hPa SW 7.9 km/h 9.7 km/h 84% 0.0 mm 130 W/m2
12:44 8.4 °C 5.5 °C 1003.4 hPa WNW 6.4 km/h 12.9 km/h 82% 0.0 mm 139 W/m2
12:49 8.5 °C 5.6 °C 1003.4 hPa WNW 20.9 km/h 20.9 km/h 82% 0.0 mm 220 W/m2
12:55 8.7 °C 6 °C 1003.4 hPa NNW 3.2 km/h 27.4 km/h 83% 0.0 mm 406 W/m2
13:00 8.9 °C 5.8 °C 1003.4 hPa West 4.7 km/h 16.1 km/h 81% 0.0 mm 179 W/m2
13:05 9.1 °C 5.8 °C 1003.0 hPa WNW 4.7 km/h 22.5 km/h 80% 0.0 mm 469 W/m2
13:10 9.3 °C 5.8 °C 1003.0 hPa WSW 4.7 km/h 8 km/h 79% 0.0 mm 167 W/m2
13:15 9.3 °C 5.7 °C 1003.0 hPa West 11.1 km/h 20.9 km/h 78% 0.0 mm 179 W/m2
13:20 9.1 °C 5.1 °C 1003.0 hPa West 13 km/h 27.4 km/h 76% 0.0 mm 327 W/m2
13:25 8.9 °C 5.3 °C 1003.0 hPa NW 7.9 km/h 19.3 km/h 78% 0.0 mm 239 W/m2
13:30 8.7 °C 5.3 °C 1003.0 hPa NW 11.1 km/h 19.3 km/h 79% 0.0 mm 135 W/m2
13:35 8.4 °C 5.3 °C 1003.0 hPa West 14.3 km/h 19.3 km/h 81% 0.0 mm 113 W/m2
13:40 8.3 °C 5.4 °C 1003.0 hPa SSW 6.4 km/h 17.7 km/h 82% 0.0 mm 204 W/m2
13:45 8.1 °C 5.6 °C 1002.7 hPa WSW 14.3 km/h 27.4 km/h 84% 0.2 mm 121 W/m2
13:50 8.1 °C 5.7 °C 1002.7 hPa WNW 9.7 km/h 17.7 km/h 85% 0.2 mm 79 W/m2
13:55 8.1 °C 5.7 °C 1002.4 hPa West 11.1 km/h 24.1 km/h 85% 0.2 mm 74 W/m2
14:00 8.2 °C 5.8 °C 1002.4 hPa WNW 13 km/h 16.1 km/h 85% 0.2 mm 165 W/m2
14:05 8.4 °C 5.7 °C 1002.4 hPa West 13 km/h 32.2 km/h 83% 0.2 mm 116 W/m2
14:10 8.6 °C 5.9 °C 1002.4 hPa West 9.7 km/h 17.7 km/h 83% 0.2 mm 76 W/m2
14:16 8.5 °C 5.6 °C 1002.4 hPa NW 14.3 km/h 32.2 km/h 82% 0.2 mm 102 W/m2
14:21 8.6 °C 5.5 °C 1002.0 hPa WNW 7.9 km/h 16.1 km/h 81% 0.2 mm 165 W/m2
14:26 8.8 °C 5.7 °C 1002.0 hPa West 11.1 km/h 25.7 km/h 81% 0.2 mm 178 W/m2
14:31 9 °C 5.7 °C 1002.0 hPa West 13 km/h 12.9 km/h 80% 0.2 mm 188 W/m2
14:36 9.2 °C 5.4 °C 1002.0 hPa West 13 km/h 19.3 km/h 77% 0.2 mm 334 W/m2
14:41 9.2 °C 5.2 °C 1002.0 hPa West 14.3 km/h 20.9 km/h 76% 0.2 mm 62 W/m2
14:46 9.2 °C 5.2 °C 1002.0 hPa WSW 7.9 km/h 19.3 km/h 76% 0.0 mm 302 W/m2
14:51 9.3 °C 5.3 °C 1002.0 hPa West 13 km/h 14.5 km/h 76% 0.0 mm 146 W/m2
14:56 9.3 °C 5.1 °C 1002.0 hPa West 13 km/h 16.1 km/h 75% 0.0 mm 176 W/m2
15:01 9.4 °C 5 °C 1002.0 hPa WNW 11.1 km/h 22.5 km/h 74% 0.0 mm 176 W/m2
15:06 9.4 °C 4.2 °C 1002.0 hPa WNW 14.3 km/h 27.4 km/h 70% 0.0 mm 151 W/m2
15:11 9.5 °C 4.5 °C 1001.7 hPa West 9.7 km/h 14.5 km/h 71% 0.0 mm 102 W/m2
15:16 9.5 °C 4.3 °C 1001.7 hPa West 11.1 km/h 24.1 km/h 70% 0.0 mm 171 W/m2
15:21 9.5 °C 4.3 °C 1001.7 hPa SW 11.1 km/h 25.7 km/h 70% 0.0 mm 123 W/m2
15:26 9.4 °C 3.6 °C 1001.7 hPa West 32.2 km/h 32.2 km/h 67% 0.0 mm 74 W/m2
15:31 9.4 °C 3.8 °C 1001.7 hPa NW 7.9 km/h 20.9 km/h 68% 0.0 mm 104 W/m2
15:36 9.4 °C 3.8 °C 1001.7 hPa WNW 13 km/h 19.3 km/h 68% 0.0 mm 162 W/m2
15:41 9.5 °C 3.9 °C 1001.7 hPa WSW 17.7 km/h 17.7 km/h 68% 0.0 mm 169 W/m2
15:46 9.6 °C 4.2 °C 1001.7 hPa WNW 6.4 km/h 14.5 km/h 69% 0.0 mm 134 W/m2
15:51 9.5 °C 4.1 °C 1001.7 hPa West 11.1 km/h 17.7 km/h 69% 0.0 mm 102 W/m2
15:57 9.4 °C 4.2 °C 1001.4 hPa WSW 9.7 km/h 17.7 km/h 70% 0.0 mm 153 W/m2
16:02 9.3 °C 4.1 °C 1001.4 hPa WNW 4.7 km/h 17.7 km/h 70% 0.0 mm 97 W/m2
16:07 9.3 °C 4.3 °C 1001.4 hPa WNW 6.4 km/h 14.5 km/h 71% 0.0 mm 223 W/m2
16:12 9.3 °C 4.5 °C 1001.4 hPa WSW 6.4 km/h 11.3 km/h 72% 0.0 mm 109 W/m2
16:17 9.3 °C 4.5 °C 1001.4 hPa NW 13 km/h 22.5 km/h 72% 0.0 mm 90 W/m2
16:22 9.2 °C 4.4 °C 1001.4 hPa ESE 1.4 km/h 12.9 km/h 72% 0.0 mm 32 W/m2
16:27 9.1 °C 4.5 °C 1001.0 hPa WNW 7.9 km/h 20.9 km/h 73% 0.0 mm 42 W/m2
16:32 9 °C 4.6 °C 1001.0 hPa NNW 6.4 km/h 9.7 km/h 74% 0.0 mm 46 W/m2
16:37 8.9 °C 4.3 °C 1000.7 hPa West 11.1 km/h 11.3 km/h 73% 0.0 mm 53 W/m2
16:42 9 °C 4.4 °C 1000.7 hPa NNW 6.4 km/h 11.3 km/h 73% 0.0 mm 33 W/m2
16:47 9.1 °C 4.3 °C 1000.3 hPa NNW 6.4 km/h 12.9 km/h 72% 0.0 mm 33 W/m2
16:52 9.1 °C 4.1 °C 1000.7 hPa NE 1.4 km/h 9.7 km/h 71% 0.0 mm 28 W/m2
16:57 9.1 °C 4.1 °C 1000.3 hPa Calm   4.8 km/h 71% 0.0 mm 28 W/m2
17:02 9.1 °C 4.1 °C 1000.3 hPa WNW 3.2 km/h 14.5 km/h 71% 0.0 mm 19 W/m2
17:07 9 °C 4 °C 1000.3 hPa NW 1.4 km/h 6.4 km/h 71% 0.0 mm 16 W/m2
17:12 8.9 °C 3.9 °C 1000.3 hPa WNW 4.7 km/h 14.5 km/h 71% 0.0 mm 16 W/m2
17:17 8.8 °C 4 °C 1000.3 hPa West 9.7 km/h 12.9 km/h 72% 0.0 mm 14 W/m2
17:23 8.8 °C 4 °C 1000.3 hPa WSW 6.4 km/h 9.7 km/h 72% 0.0 mm 12 W/m2
17:28 8.8 °C 4.2 °C 1000.3 hPa WNW 4.7 km/h 11.3 km/h 73% 0.0 mm 0 W/m2
17:33 8.7 °C 4.3 °C 1000.3 hPa West 4.7 km/h 8 km/h 74% 0.0 mm 0 W/m2
17:38 8.6 °C 4.6 °C 1000.3 hPa NW 1.4 km/h 1.6 km/h 76% 0.0 mm 7 W/m2
17:43 8.5 °C 4.5 °C 1000.3 hPa NW 4.7 km/h 9.7 km/h 76% 0.0 mm 0 W/m2
17:48 8.2 °C 4.4 °C 1000.7 hPa WSW 17.7 km/h 32.2 km/h 77% 0.0 mm 0 W/m2
17:53 7.3 °C 4.6 °C 1001.0 hPa NNW 13 km/h 20.9 km/h 83% 0.5 mm 0 W/m2
17:58 6.5 °C 4.3 °C 1000.7 hPa SW 3.2 km/h 25.7 km/h 86% 1.5 mm 0 W/m2
18:03 6.2 °C 4.2 °C 1000.7 hPa WNW 14.3 km/h 22.5 km/h 87% 1.5 mm 0 W/m2
18:08 6.1 °C 4.3 °C 1000.3 hPa West 4.7 km/h 12.9 km/h 88% 1.5 mm 0 W/m2
18:13 6.1 °C 4.3 °C 1000.3 hPa WNW 4.7 km/h 22.5 km/h 88% 1.5 mm 0 W/m2
18:18 6 °C 4.3 °C 1000.3 hPa WNW 4.7 km/h 9.7 km/h 89% 1.8 mm 0 W/m2
18:23 6 °C 4.3 °C 1000.7 hPa WNW 6.4 km/h 20.9 km/h 89% 2.3 mm 0 W/m2
18:28 5.8 °C 4.3 °C 1000.7 hPa West 17.7 km/h 24.1 km/h 90% 2.5 mm 0 W/m2
18:33 5.7 °C 4 °C 1000.7 hPa WNW 7.9 km/h 25.7 km/h 89% 3.0 mm 0 W/m2
18:38 5.7 °C 4.2 °C 1000.3 hPa WSW 6.4 km/h 17.7 km/h 90% 3.0 mm 0 W/m2
18:43 5.7 °C 4.2 °C 1000.3 hPa WNW 4.7 km/h 25.7 km/h 90% 3.0 mm 0 W/m2
18:48 5.7 °C 4.2 °C 1000.7 hPa NW 13 km/h 16.1 km/h 90% 3.3 mm 0 W/m2
18:53 5.6 °C 4.1 °C 1001.0 hPa WNW 6.4 km/h 12.9 km/h 90% 3.3 mm 0 W/m2
18:58 5.2 °C 3.5 °C 1000.7 hPa WNW 11.1 km/h 11.3 km/h 89% 3.3 mm 0 W/m2
19:03 5 °C 3.5 °C 1000.3 hPa WSW 6.4 km/h 12.9 km/h 90% 3.6 mm 0 W/m2
19:08 5.1 °C 3.8 °C 1000.3 hPa WNW 9.7 km/h 11.3 km/h 91% 3.6 mm 0 W/m2
19:13 5.1 °C 3.8 °C 1000.3 hPa WNW 3.2 km/h 11.3 km/h 91% 3.6 mm 0 W/m2
19:18 5.1 °C 3.8 °C 1000.3 hPa NW 7.9 km/h 12.9 km/h 91% 3.6 mm 0 W/m2
19:23 5.1 °C 3.8 °C 1000.0 hPa SW 1.4 km/h 14.5 km/h 91% 3.3 mm 0 W/m2
19:28 5.1 °C 3.8 °C 1000.0 hPa WSW 3.2 km/h 11.3 km/h 91% 2.8 mm 0 W/m2
19:33 5.1 °C 3.6 °C 999.7 hPa NW 3.2 km/h 8 km/h 90% 2.3 mm 0 W/m2
19:38 5.1 °C 3.8 °C 1000.0 hPa WSW 6.4 km/h 16.1 km/h 91% 2.3 mm 0 W/m2
19:43 5.1 °C 3.8 °C 1000.0 hPa SW 1.4 km/h 12.9 km/h 91% 2.3 mm 0 W/m2
19:48 5.1 °C 3.8 °C 999.7 hPa WNW 4.7 km/h 16.1 km/h 91% 2.0 mm 0 W/m2
19:53 5.1 °C 3.8 °C 999.7 hPa South 7.9 km/h 16.1 km/h 91% 1.5 mm 0 W/m2
19:58 5.1 °C 3.8 °C 999.7 hPa WSW 6.4 km/h 12.9 km/h 91% 0.5 mm 0 W/m2
20:03 5.1 °C 3.6 °C 999.7 hPa NW 7.9 km/h 24.1 km/h 90% 0.5 mm 0 W/m2
20:08 5.2 °C 3.5 °C 999.7 hPa West 13 km/h 16.1 km/h 89% 0.5 mm 0 W/m2
20:13 5.3 °C 3.6 °C 999.7 hPa WSW 14.3 km/h 24.1 km/h 89% 0.2 mm 0 W/m2
20:18 5.3 °C 3.5 °C 999.7 hPa WSW 4.7 km/h 12.9 km/h 88% 0.0 mm 0 W/m2
20:23 5.3 °C 3.5 °C 999.7 hPa WNW 4.7 km/h 14.5 km/h 88% 0.0 mm 0 W/m2
20:28 5.3 °C 3.5 °C 999.7 hPa West 6.4 km/h 14.5 km/h 88% 0.0 mm 0 W/m2
20:33 5.3 °C 3.5 °C 999.7 hPa SW 13 km/h 17.7 km/h 88% 0.0 mm 0 W/m2
20:38 5.3 °C 3.5 °C 999.3 hPa West 3.2 km/h 9.7 km/h 88% 0.0 mm 0 W/m2
20:43 5.2 °C 3.4 °C 999.3 hPa NW 1.4 km/h 8 km/h 88% 0.0 mm 0 W/m2
20:48 5.2 °C 3.4 °C 999.3 hPa WNW 6.4 km/h 12.9 km/h 88% 0.0 mm 0 W/m2
20:53 5.1 °C 3.3 °C 999.3 hPa WNW 11.1 km/h 17.7 km/h 88% 0.0 mm 0 W/m2
20:58 5.1 °C 3.4 °C 999.3 hPa West 3.2 km/h 19.3 km/h 89% 0.0 mm 0 W/m2
21:03 5.1 °C 3.4 °C 999.3 hPa WSW 6.4 km/h 16.1 km/h 89% 0.0 mm 0 W/m2
21:08 5 °C 3.2 °C 999.3 hPa WSW 6.4 km/h 19.3 km/h 88% 0.0 mm 0 W/m2
21:13 4.9 °C 3.2 °C 999.3 hPa NW 13 km/h 19.3 km/h 89% 0.0 mm 0 W/m2
21:18 4.9 °C 3.2 °C 999.3 hPa NW 7.9 km/h 16.1 km/h 89% 0.0 mm 0 W/m2
21:23 4.9 °C 3.1 °C 999.0 hPa WNW 4.7 km/h 14.5 km/h 88% 0.0 mm 0 W/m2
21:28 4.9 °C 3.2 °C 999.0 hPa West 4.7 km/h 11.3 km/h 89% 0.0 mm 0 W/m2
21:33 4.8 °C 3.1 °C 999.0 hPa West 6.4 km/h 12.9 km/h 89% 0.0 mm 0 W/m2
21:38 4.8 °C 3.1 °C 999.0 hPa WNW 6.4 km/h 9.7 km/h 89% 0.0 mm 0 W/m2
21:43 4.7 °C 3 °C 999.0 hPa West 3.2 km/h 9.7 km/h 89% 0.0 mm 0 W/m2
21:48 4.7 °C 3 °C 999.0 hPa NW 1.4 km/h 1.6 km/h 89% 0.0 mm 0 W/m2
21:53 4.7 °C 3.2 °C 998.6 hPa WNW 4.7 km/h 9.7 km/h 90% 0.0 mm 0 W/m2
21:58 4.6 °C 3.1 °C 998.3 hPa WSW 3.2 km/h 4.8 km/h 90% 0.0 mm 0 W/m2
22:03 4.5 °C 3 °C 998.6 hPa NNW 1.4 km/h 4.8 km/h 90% 0.0 mm 0 W/m2
22:08 4.4 °C 2.9 °C 998.3 hPa WNW 4.7 km/h 6.4 km/h 90% 0.0 mm 0 W/m2
22:13 4.4 °C 3.1 °C 998.3 hPa East 1.4 km/h 8 km/h 91% 0.0 mm 0 W/m2
22:18 4.4 °C 3.1 °C 998.3 hPa North 3.2 km/h 11.3 km/h 91% 0.0 mm 0 W/m2
22:23 4.4 °C 2.9 °C 998.3 hPa West 1.4 km/h 8 km/h 90% 0.0 mm 0 W/m2
22:28 4.4 °C 2.9 °C 998.3 hPa South 1.4 km/h 4.8 km/h 90% 0.0 mm 0 W/m2
22:33 4.3 °C 2.8 °C 998.0 hPa NW 4.7 km/h 4.8 km/h 90% 0.0 mm 0 W/m2
22:39 4.3 °C 2.8 °C 998.0 hPa NNW 9.7 km/h 16.1 km/h 90% 0.0 mm 0 W/m2
22:44 4.2 °C 2.7 °C 998.0 hPa NNW 6.4 km/h 6.4 km/h 90% 0.0 mm 0 W/m2
22:49 4.2 °C 2.7 °C 998.0 hPa WSW 3.2 km/h 16.1 km/h 90% 0.0 mm 0 W/m2
22:54 4.2 °C 2.9 °C 998.3 hPa NNW 3.2 km/h 11.3 km/h 91% 0.0 mm 0 W/m2
22:59 4.2 °C 2.9 °C 998.3 hPa NNW 4.7 km/h 9.7 km/h 91% 0.2 mm 0 W/m2
23:04 4.2 °C 2.9 °C 998.3 hPa WNW 11.1 km/h 11.3 km/h 91% 0.5 mm 0 W/m2
23:09 4.1 °C 2.8 °C 998.3 hPa West 9.7 km/h 22.5 km/h 91% 0.5 mm 0 W/m2
23:14 4.1 °C 2.9 °C 998.3 hPa SSE 13 km/h 12.9 km/h 92% 0.5 mm 0 W/m2
23:19 4.1 °C 2.9 °C 998.3 hPa West 1.4 km/h 22.5 km/h 92% 0.5 mm 0 W/m2
23:24 4.2 °C 3 °C 998.3 hPa NW 3.2 km/h 11.3 km/h 92% 0.5 mm 0 W/m2
23:29 4.2 °C 3 °C 998.3 hPa SW 11.1 km/h 19.3 km/h 92% 0.5 mm 0 W/m2
23:34 4.1 °C 2.8 °C 998.0 hPa WNW 16.3 km/h 16.1 km/h 91% 0.5 mm 0 W/m2
23:39 4 °C 2.7 °C 997.3 hPa West 1.4 km/h 19.3 km/h 91% 0.5 mm 0 W/m2
23:44 3.9 °C 2.6 °C 997.6 hPa NW 16.3 km/h 20.9 km/h 91% 0.5 mm 0 W/m2
23:49 3.8 °C 2.5 °C 997.3 hPa WSW 4.7 km/h 8 km/h 91% 0.5 mm 0 W/m2
23:54 3.7 °C 2.4 °C 997.3 hPa NW 9.7 km/h 20.9 km/h 91% 0.5 mm 0 W/m2
23:59 3.5 °C 2.2 °C 997.6 hPa WNW 4.7 km/h 11.3 km/h 91% 0.5 mm 0 W/m2
Juneau County Weather
Compliments of Weather Underground - 4 mb